sensor_id;sensor_type;location;lat;lon;timestamp;temperature;humidity
2657;DHT22;1338;48.176;11.792;2023-08-20T00:02:08;20.70;99.90
2657;DHT22;1338;48.176;11.792;2023-08-20T00:04:38;20.70;99.90
2657;DHT22;1338;48.176;11.792;2023-08-20T00:07:08;20.70;99.90
2657;DHT22;1338;48.176;11.792;2023-08-20T00:09:36;20.60;99.90
2657;DHT22;1338;48.176;11.792;2023-08-20T00:12:07;20.30;99.90
2657;DHT22;1338;48.176;11.792;2023-08-20T00:14:52;19.90;1.00
2657;DHT22;1338;48.176;11.792;2023-08-20T00:17:21;19.70;1.00
2657;DHT22;1338;48.176;11.792;2023-08-20T00:19:52;19.60;1.00
2657;DHT22;1338;48.176;11.792;2023-08-20T00:22:22;19.60;1.00
2657;DHT22;1338;48.176;11.792;2023-08-20T00:24:52;19.60;1.00
2657;DHT22;1338;48.176;11.792;2023-08-20T00:27:23;19.70;1.00
2657;DHT22;1338;48.176;11.792;2023-08-20T00:29:52;19.60;1.00
2657;DHT22;1338;48.176;11.792;2023-08-20T00:32:20;19.60;1.00
2657;DHT22;1338;48.176;11.792;2023-08-20T00:34:49;19.70;1.00
2657;DHT22;1338;48.176;11.792;2023-08-20T00:37:17;19.70;1.00
2657;DHT22;1338;48.176;11.792;2023-08-20T00:39:46;19.60;1.00
2657;DHT22;1338;48.176;11.792;2023-08-20T00:42:15;19.40;1.00
2657;DHT22;1338;48.176;11.792;2023-08-20T00:44:45;19.20;1.00
2657;DHT22;1338;48.176;11.792;2023-08-20T00:47:14;19.00;1.00
2657;DHT22;1338;48.176;11.792;2023-08-20T00:49:44;19.00;1.00
2657;DHT22;1338;48.176;11.792;2023-08-20T00:52:14;19.00;1.00
2657;DHT22;1338;48.176;11.792;2023-08-20T00:54:45;19.00;1.00
2657;DHT22;1338;48.176;11.792;2023-08-20T00:57:17;18.90;1.00
2657;DHT22;1338;48.176;11.792;2023-08-20T00:59:48;18.80;1.00
2657;DHT22;1338;48.176;11.792;2023-08-20T01:02:20;18.70;1.00
2657;DHT22;1338;48.176;11.792;2023-08-20T01:04:49;18.60;1.00
2657;DHT22;1338;48.176;11.792;2023-08-20T01:07:23;18.60;1.00
2657;DHT22;1338;48.176;11.792;2023-08-20T01:10:00;18.70;1.00
2657;DHT22;1338;48.176;11.792;2023-08-20T01:12:31;18.80;1.00
2657;DHT22;1338;48.176;11.792;2023-08-20T01:15:05;19.00;1.00
2657;DHT22;1338;48.176;11.792;2023-08-20T01:17:36;19.00;1.00
2657;DHT22;1338;48.176;11.792;2023-08-20T01:20:06;19.10;1.00
2657;DHT22;1338;48.176;11.792;2023-08-20T01:22:59;19.20;1.00
2657;DHT22;1338;48.176;11.792;2023-08-20T01:25:45;19.10;1.00
2657;DHT22;1338;48.176;11.792;2023-08-20T01:28:22;19.10;1.00
2657;DHT22;1338;48.176;11.792;2023-08-20T01:30:52;19.40;1.00
2657;DHT22;1338;48.176;11.792;2023-08-20T01:33:21;19.30;1.00
2657;DHT22;1338;48.176;11.792;2023-08-20T01:35:51;19.30;1.00
2657;DHT22;1338;48.176;11.792;2023-08-20T01:38:20;19.30;1.00
2657;DHT22;1338;48.176;11.792;2023-08-20T01:40:49;19.10;1.00
2657;DHT22;1338;48.176;11.792;2023-08-20T01:43:21;19.10;1.00
2657;DHT22;1338;48.176;11.792;2023-08-20T01:45:49;19.10;1.00
2657;DHT22;1338;48.176;11.792;2023-08-20T01:48:18;19.00;1.00
2657;DHT22;1338;48.176;11.792;2023-08-20T01:50:46;19.10;1.00
2657;DHT22;1338;48.176;11.792;2023-08-20T01:53:15;19.10;1.00
2657;DHT22;1338;48.176;11.792;2023-08-20T01:55:43;19.20;1.00
2657;DHT22;1338;48.176;11.792;2023-08-20T01:58:12;19.00;1.00
2657;DHT22;1338;48.176;11.792;2023-08-20T02:00:45;18.90;1.00
2657;DHT22;1338;48.176;11.792;2023-08-20T02:03:13;18.80;1.00
2657;DHT22;1338;48.176;11.792;2023-08-20T02:05:42;18.60;1.00
2657;DHT22;1338;48.176;11.792;2023-08-20T02:08:11;18.70;1.00
2657;DHT22;1338;48.176;11.792;2023-08-20T02:10:40;18.60;1.00
2657;DHT22;1338;48.176;11.792;2023-08-20T02:13:09;18.50;1.00
2657;DHT22;1338;48.176;11.792;2023-08-20T02:15:37;18.40;1.00
2657;DHT22;1338;48.176;11.792;2023-08-20T02:18:07;18.30;1.00
2657;DHT22;1338;48.176;11.792;2023-08-20T02:20:36;18.20;1.00
2657;DHT22;1338;48.176;11.792;2023-08-20T02:23:05;18.30;1.00
2657;DHT22;1338;48.176;11.792;2023-08-20T02:25:34;18.40;1.00
2657;DHT22;1338;48.176;11.792;2023-08-20T02:28:03;18.40;1.00
2657;DHT22;1338;48.176;11.792;2023-08-20T02:30:32;18.40;1.00
2657;DHT22;1338;48.176;11.792;2023-08-20T02:33:08;18.30;1.00
2657;DHT22;1338;48.176;11.792;2023-08-20T02:35:37;18.30;1.00
2657;DHT22;1338;48.176;11.792;2023-08-20T02:38:06;18.30;1.00
2657;DHT22;1338;48.176;11.792;2023-08-20T02:40:41;18.30;1.00
2657;DHT22;1338;48.176;11.792;2023-08-20T02:43:11;18.30;1.00
2657;DHT22;1338;48.176;11.792;2023-08-20T02:45:40;18.30;1.00
2657;DHT22;1338;48.176;11.792;2023-08-20T02:48:13;18.30;1.00
2657;DHT22;1338;48.176;11.792;2023-08-20T02:50:42;18.30;1.00
2657;DHT22;1338;48.176;11.792;2023-08-20T02:53:10;18.40;1.00
2657;DHT22;1338;48.176;11.792;2023-08-20T02:55:39;18.50;1.00
2657;DHT22;1338;48.176;11.792;2023-08-20T02:58:08;18.70;1.00
2657;DHT22;1338;48.176;11.792;2023-08-20T03:00:36;18.60;1.00
2657;DHT22;1338;48.176;11.792;2023-08-20T03:03:06;18.60;1.00
2657;DHT22;1338;48.176;11.792;2023-08-20T03:05:39;18.50;1.00
2657;DHT22;1338;48.176;11.792;2023-08-20T03:08:07;18.30;1.00
2657;DHT22;1338;48.176;11.792;2023-08-20T03:10:37;18.30;1.00
2657;DHT22;1338;48.176;11.792;2023-08-20T03:13:06;18.20;1.00
2657;DHT22;1338;48.176;11.792;2023-08-20T03:15:34;18.10;1.00
2657;DHT22;1338;48.176;11.792;2023-08-20T03:18:04;18.00;1.00
2657;DHT22;1338;48.176;11.792;2023-08-20T03:20:33;18.00;1.00
2657;DHT22;1338;48.176;11.792;2023-08-20T03:23:03;17.90;1.00
2657;DHT22;1338;48.176;11.792;2023-08-20T03:25:32;17.80;1.00
2657;DHT22;1338;48.176;11.792;2023-08-20T03:28:01;17.80;1.00
2657;DHT22;1338;48.176;11.792;2023-08-20T03:30:30;17.80;1.00
2657;DHT22;1338;48.176;11.792;2023-08-20T03:32:58;17.80;1.00
2657;DHT22;1338;48.176;11.792;2023-08-20T03:35:27;17.80;1.00
2657;DHT22;1338;48.176;11.792;2023-08-20T03:37:56;17.80;1.00
2657;DHT22;1338;48.176;11.792;2023-08-20T03:40:27;17.60;1.00
2657;DHT22;1338;48.176;11.792;2023-08-20T03:42:56;17.50;1.00
2657;DHT22;1338;48.176;11.792;2023-08-20T03:45:25;17.40;1.00
2657;DHT22;1338;48.176;11.792;2023-08-20T03:47:54;17.40;1.00
2657;DHT22;1338;48.176;11.792;2023-08-20T03:50:23;17.40;1.00
2657;DHT22;1338;48.176;11.792;2023-08-20T03:52:51;17.30;1.00
2657;DHT22;1338;48.176;11.792;2023-08-20T03:55:20;17.10;1.00
2657;DHT22;1338;48.176;11.792;2023-08-20T03:57:50;17.00;1.00
2657;DHT22;1338;48.176;11.792;2023-08-20T04:00:19;17.10;44.80
2657;DHT22;1338;48.176;11.792;2023-08-20T04:02:48;17.10;99.90
2657;DHT22;1338;48.176;11.792;2023-08-20T04:05:17;16.90;99.90
2657;DHT22;1338;48.176;11.792;2023-08-20T04:07:46;16.70;99.90
2657;DHT22;1338;48.176;11.792;2023-08-20T04:10:15;16.70;99.90
2657;DHT22;1338;48.176;11.792;2023-08-20T04:12:43;16.90;99.90
2657;DHT22;1338;48.176;11.792;2023-08-20T04:15:14;17.00;99.90
2657;DHT22;1338;48.176;11.792;2023-08-20T04:17:43;17.30;41.00
2657;DHT22;1338;48.176;11.792;2023-08-20T04:20:12;17.40;1.00
2657;DHT22;1338;48.176;11.792;2023-08-20T04:22:41;17.50;1.00
2657;DHT22;1338;48.176;11.792;2023-08-20T04:25:10;17.50;1.00
2657;DHT22;1338;48.176;11.792;2023-08-20T04:27:39;17.50;1.00
2657;DHT22;1338;48.176;11.792;2023-08-20T04:30:09;17.60;1.00
2657;DHT22;1338;48.176;11.792;2023-08-20T04:32:41;17.70;1.00
2657;DHT22;1338;48.176;11.792;2023-08-20T04:35:09;17.70;1.00
2657;DHT22;1338;48.176;11.792;2023-08-20T04:37:40;17.80;1.00
2657;DHT22;1338;48.176;11.792;2023-08-20T04:40:09;18.00;1.00
2657;DHT22;1338;48.176;11.792;2023-08-20T04:42:38;18.00;1.00
2657;DHT22;1338;48.176;11.792;2023-08-20T04:45:08;18.00;1.00
2657;DHT22;1338;48.176;11.792;2023-08-20T04:47:37;18.00;1.00
2657;DHT22;1338;48.176;11.792;2023-08-20T04:50:09;18.10;1.00
2657;DHT22;1338;48.176;11.792;2023-08-20T04:52:38;18.20;1.00
2657;DHT22;1338;48.176;11.792;2023-08-20T04:55:08;18.00;1.00
2657;DHT22;1338;48.176;11.792;2023-08-20T04:57:37;17.30;99.90
2657;DHT22;1338;48.176;11.792;2023-08-20T05:00:07;17.20;99.90
2657;DHT22;1338;48.176;11.792;2023-08-20T05:03:02;17.40;99.90
2657;DHT22;1338;48.176;11.792;2023-08-20T05:05:33;17.60;1.00
2657;DHT22;1338;48.176;11.792;2023-08-20T05:08:02;17.80;1.00
2657;DHT22;1338;48.176;11.792;2023-08-20T05:10:30;17.80;1.00
2657;DHT22;1338;48.176;11.792;2023-08-20T05:12:59;17.90;1.00
2657;DHT22;1338;48.176;11.792;2023-08-20T05:15:27;17.80;1.00
2657;DHT22;1338;48.176;11.792;2023-08-20T05:17:56;18.00;1.00
2657;DHT22;1338;48.176;11.792;2023-08-20T05:20:25;18.10;1.00
2657;DHT22;1338;48.176;11.792;2023-08-20T05:22:55;18.10;1.00
2657;DHT22;1338;48.176;11.792;2023-08-20T05:25:25;18.10;1.00
2657;DHT22;1338;48.176;11.792;2023-08-20T05:27:54;18.10;1.00
2657;DHT22;1338;48.176;11.792;2023-08-20T05:30:22;18.10;1.00
2657;DHT22;1338;48.176;11.792;2023-08-20T05:32:51;18.10;1.00
2657;DHT22;1338;48.176;11.792;2023-08-20T05:35:21;18.10;1.00
2657;DHT22;1338;48.176;11.792;2023-08-20T05:37:50;18.10;1.00
2657;DHT22;1338;48.176;11.792;2023-08-20T05:40:21;18.20;1.00
2657;DHT22;1338;48.176;11.792;2023-08-20T05:42:49;18.20;1.00
2657;DHT22;1338;48.176;11.792;2023-08-20T05:45:19;18.20;1.00
2657;DHT22;1338;48.176;11.792;2023-08-20T05:47:49;18.30;1.00
2657;DHT22;1338;48.176;11.792;2023-08-20T05:50:18;18.40;1.00
2657;DHT22;1338;48.176;11.792;2023-08-20T05:52:47;18.60;1.00
2657;DHT22;1338;48.176;11.792;2023-08-20T05:55:16;18.70;1.00
2657;DHT22;1338;48.176;11.792;2023-08-20T05:57:48;18.80;1.00
2657;DHT22;1338;48.176;11.792;2023-08-20T06:00:17;18.80;1.00
2657;DHT22;1338;48.176;11.792;2023-08-20T06:02:47;19.00;1.00
2657;DHT22;1338;48.176;11.792;2023-08-20T06:05:16;19.10;1.00
2657;DHT22;1338;48.176;11.792;2023-08-20T06:07:45;19.40;99.90
2657;DHT22;1338;48.176;11.792;2023-08-20T06:10:13;19.90;1.00
2657;DHT22;1338;48.176;11.792;2023-08-20T06:12:41;20.40;1.00
2657;DHT22;1338;48.176;11.792;2023-08-20T06:15:11;21.10;99.90
2657;DHT22;1338;48.176;11.792;2023-08-20T06:17:39;21.30;99.90
2657;DHT22;1338;48.176;11.792;2023-08-20T06:20:09;21.50;99.90
2657;DHT22;1338;48.176;11.792;2023-08-20T06:22:38;21.60;99.90
2657;DHT22;1338;48.176;11.792;2023-08-20T06:25:08;21.30;99.90
2657;DHT22;1338;48.176;11.792;2023-08-20T06:27:36;21.50;99.90
2657;DHT22;1338;48.176;11.792;2023-08-20T06:30:06;21.70;99.90
2657;DHT22;1338;48.176;11.792;2023-08-20T06:32:36;21.80;99.90
2657;DHT22;1338;48.176;11.792;2023-08-20T06:35:05;21.80;91.90
2657;DHT22;1338;48.176;11.792;2023-08-20T06:37:38;21.80;75.80
2657;DHT22;1338;48.176;11.792;2023-08-20T06:40:07;22.00;54.00
2657;DHT22;1338;48.176;11.792;2023-08-20T06:42:36;22.30;35.30
2657;DHT22;1338;48.176;11.792;2023-08-20T06:45:07;22.40;1.00
2657;DHT22;1338;48.176;11.792;2023-08-20T06:47:37;22.10;1.00
2657;DHT22;1338;48.176;11.792;2023-08-20T06:50:06;22.10;1.00
2657;DHT22;1338;48.176;11.792;2023-08-20T06:52:35;22.20;1.00
2657;DHT22;1338;48.176;11.792;2023-08-20T06:55:03;22.20;1.00
2657;DHT22;1338;48.176;11.792;2023-08-20T06:57:32;22.60;1.00
2657;DHT22;1338;48.176;11.792;2023-08-20T07:00:01;22.70;1.00
2657;DHT22;1338;48.176;11.792;2023-08-20T07:02:32;22.70;1.00
2657;DHT22;1338;48.176;11.792;2023-08-20T07:05:01;22.80;1.00
2657;DHT22;1338;48.176;11.792;2023-08-20T07:07:31;22.90;1.00
2657;DHT22;1338;48.176;11.792;2023-08-20T07:10:00;23.10;1.00
2657;DHT22;1338;48.176;11.792;2023-08-20T07:12:28;23.10;1.00
2657;DHT22;1338;48.176;11.792;2023-08-20T07:14:57;22.90;1.00
2657;DHT22;1338;48.176;11.792;2023-08-20T07:17:25;23.20;1.00
2657;DHT22;1338;48.176;11.792;2023-08-20T07:19:54;23.20;1.00
2657;DHT22;1338;48.176;11.792;2023-08-20T07:22:24;23.00;1.00
2657;DHT22;1338;48.176;11.792;2023-08-20T07:24:52;23.40;1.00
2657;DHT22;1338;48.176;11.792;2023-08-20T07:27:22;23.60;1.00
2657;DHT22;1338;48.176;11.792;2023-08-20T07:29:50;23.60;1.00
2657;DHT22;1338;48.176;11.792;2023-08-20T07:32:19;23.60;1.00
2657;DHT22;1338;48.176;11.792;2023-08-20T07:34:47;23.70;1.00
2657;DHT22;1338;48.176;11.792;2023-08-20T07:37:16;23.50;1.00
2657;DHT22;1338;48.176;11.792;2023-08-20T07:39:46;23.60;1.00
2657;DHT22;1338;48.176;11.792;2023-08-20T07:42:14;23.70;1.00
2657;DHT22;1338;48.176;11.792;2023-08-20T07:44:45;24.00;1.00
2657;DHT22;1338;48.176;11.792;2023-08-20T07:47:14;24.00;1.00
2657;DHT22;1338;48.176;11.792;2023-08-20T07:49:42;24.20;1.00
2657;DHT22;1338;48.176;11.792;2023-08-20T07:52:11;24.20;1.00
2657;DHT22;1338;48.176;11.792;2023-08-20T07:54:40;24.20;1.00
2657;DHT22;1338;48.176;11.792;2023-08-20T07:57:13;24.30;1.00
2657;DHT22;1338;48.176;11.792;2023-08-20T07:59:41;24.70;1.00
2657;DHT22;1338;48.176;11.792;2023-08-20T08:02:10;24.50;1.00
2657;DHT22;1338;48.176;11.792;2023-08-20T08:04:38;24.90;1.00
2657;DHT22;1338;48.176;11.792;2023-08-20T08:07:10;24.90;1.00
2657;DHT22;1338;48.176;11.792;2023-08-20T08:09:38;25.00;1.00
2657;DHT22;1338;48.176;11.792;2023-08-20T08:12:07;25.10;1.00
2657;DHT22;1338;48.176;11.792;2023-08-20T08:14:40;24.90;1.00
2657;DHT22;1338;48.176;11.792;2023-08-20T08:17:09;25.10;1.00
2657;DHT22;1338;48.176;11.792;2023-08-20T08:19:37;25.10;1.00
2657;DHT22;1338;48.176;11.792;2023-08-20T08:22:06;25.20;1.00
2657;DHT22;1338;48.176;11.792;2023-08-20T08:24:35;25.00;1.00
2657;DHT22;1338;48.176;11.792;2023-08-20T08:27:03;25.30;1.00
2657;DHT22;1338;48.176;11.792;2023-08-20T08:29:32;25.20;1.00
2657;DHT22;1338;48.176;11.792;2023-08-20T08:32:03;25.90;1.00
2657;DHT22;1338;48.176;11.792;2023-08-20T08:34:32;26.10;1.00
2657;DHT22;1338;48.176;11.792;2023-08-20T08:37:00;26.00;1.00
2657;DHT22;1338;48.176;11.792;2023-08-20T08:39:29;25.80;1.00
2657;DHT22;1338;48.176;11.792;2023-08-20T08:42:01;26.20;1.00
2657;DHT22;1338;48.176;11.792;2023-08-20T08:44:31;26.30;1.00
2657;DHT22;1338;48.176;11.792;2023-08-20T08:47:03;26.00;1.00
2657;DHT22;1338;48.176;11.792;2023-08-20T08:49:33;26.00;1.00
2657;DHT22;1338;48.176;11.792;2023-08-20T08:52:03;26.70;1.00
2657;DHT22;1338;48.176;11.792;2023-08-20T08:54:33;26.50;1.00
2657;DHT22;1338;48.176;11.792;2023-08-20T08:57:02;26.90;1.00
2657;DHT22;1338;48.176;11.792;2023-08-20T08:59:31;26.70;1.00
2657;DHT22;1338;48.176;11.792;2023-08-20T09:02:02;26.40;1.00
2657;DHT22;1338;48.176;11.792;2023-08-20T09:04:38;26.60;1.00
2657;DHT22;1338;48.176;11.792;2023-08-20T09:07:11;27.00;1.00
2657;DHT22;1338;48.176;11.792;2023-08-20T09:09:43;27.00;1.00
2657;DHT22;1338;48.176;11.792;2023-08-20T09:12:13;26.80;1.00
2657;DHT22;1338;48.176;11.792;2023-08-20T09:14:45;26.90;1.00
2657;DHT22;1338;48.176;11.792;2023-08-20T09:17:16;27.30;1.00
2657;DHT22;1338;48.176;11.792;2023-08-20T09:19:46;27.30;1.00
2657;DHT22;1338;48.176;11.792;2023-08-20T09:22:15;27.40;1.00
2657;DHT22;1338;48.176;11.792;2023-08-20T09:24:45;27.40;1.00
2657;DHT22;1338;48.176;11.792;2023-08-20T09:27:14;27.50;1.00
2657;DHT22;1338;48.176;11.792;2023-08-20T09:29:47;27.70;1.00
2657;DHT22;1338;48.176;11.792;2023-08-20T09:32:19;27.70;1.00
2657;DHT22;1338;48.176;11.792;2023-08-20T09:34:49;27.50;1.00
2657;DHT22;1338;48.176;11.792;2023-08-20T09:37:19;28.60;1.00
2657;DHT22;1338;48.176;11.792;2023-08-20T09:39:48;28.50;1.00
2657;DHT22;1338;48.176;11.792;2023-08-20T09:42:17;29.10;1.00
2657;DHT22;1338;48.176;11.792;2023-08-20T09:44:46;29.40;1.00
2657;DHT22;1338;48.176;11.792;2023-08-20T09:47:21;29.00;1.00
2657;DHT22;1338;48.176;11.792;2023-08-20T09:49:52;28.90;1.00
2657;DHT22;1338;48.176;11.792;2023-08-20T09:52:31;28.50;1.00
2657;DHT22;1338;48.176;11.792;2023-08-20T09:55:07;28.40;1.00
2657;DHT22;1338;48.176;11.792;2023-08-20T09:57:38;28.90;1.00
2657;DHT22;1338;48.176;11.792;2023-08-20T10:00:11;28.80;1.00
2657;DHT22;1338;48.176;11.792;2023-08-20T10:02:42;29.10;1.00
2657;DHT22;1338;48.176;11.792;2023-08-20T10:05:12;29.00;1.00
2657;DHT22;1338;48.176;11.792;2023-08-20T10:07:43;29.10;1.00
2657;DHT22;1338;48.176;11.792;2023-08-20T10:10:11;29.20;1.00
2657;DHT22;1338;48.176;11.792;2023-08-20T10:12:41;29.60;1.00
2657;DHT22;1338;48.176;11.792;2023-08-20T10:15:12;29.50;1.00
2657;DHT22;1338;48.176;11.792;2023-08-20T10:17:44;28.90;1.00
2657;DHT22;1338;48.176;11.792;2023-08-20T10:20:14;28.90;1.00
2657;DHT22;1338;48.176;11.792;2023-08-20T10:22:44;29.10;1.00
2657;DHT22;1338;48.176;11.792;2023-08-20T10:25:22;29.80;1.00
2657;DHT22;1338;48.176;11.792;2023-08-20T10:27:52;29.60;1.00
2657;DHT22;1338;48.176;11.792;2023-08-20T10:30:25;30.20;1.00
2657;DHT22;1338;48.176;11.792;2023-08-20T10:32:57;30.10;1.00
2657;DHT22;1338;48.176;11.792;2023-08-20T10:35:47;30.60;1.00
2657;DHT22;1338;48.176;11.792;2023-08-20T10:38:17;30.60;1.00
2657;DHT22;1338;48.176;11.792;2023-08-20T10:40:53;30.70;1.00
2657;DHT22;1338;48.176;11.792;2023-08-20T10:43:30;30.30;99.90
2657;DHT22;1338;48.176;11.792;2023-08-20T10:46:06;30.20;99.90
2657;DHT22;1338;48.176;11.792;2023-08-20T10:48:38;31.10;99.90
2657;DHT22;1338;48.176;11.792;2023-08-20T10:51:10;30.00;99.90
2657;DHT22;1338;48.176;11.792;2023-08-20T10:53:40;30.30;99.90
2657;DHT22;1338;48.176;11.792;2023-08-20T10:56:11;30.80;99.90
2657;DHT22;1338;48.176;11.792;2023-08-20T10:58:45;31.10;99.90
2657;DHT22;1338;48.176;11.792;2023-08-20T11:01:15;31.10;99.90
2657;DHT22;1338;48.176;11.792;2023-08-20T11:03:47;31.20;99.90
2657;DHT22;1338;48.176;11.792;2023-08-20T11:06:18;30.90;99.90
2657;DHT22;1338;48.176;11.792;2023-08-20T11:08:47;31.70;99.90
2657;DHT22;1338;48.176;11.792;2023-08-20T11:11:17;30.70;99.90
2657;DHT22;1338;48.176;11.792;2023-08-20T11:13:48;31.90;99.90
2657;DHT22;1338;48.176;11.792;2023-08-20T11:16:17;31.30;99.90
2657;DHT22;1338;48.176;11.792;2023-08-20T11:18:51;31.20;99.90
2657;DHT22;1338;48.176;11.792;2023-08-20T11:21:20;31.30;99.90
2657;DHT22;1338;48.176;11.792;2023-08-20T11:23:49;31.00;99.90
2657;DHT22;1338;48.176;11.792;2023-08-20T11:26:17;31.30;99.90
2657;DHT22;1338;48.176;11.792;2023-08-20T11:28:46;30.90;99.90
2657;DHT22;1338;48.176;11.792;2023-08-20T11:31:15;31.10;99.90
2657;DHT22;1338;48.176;11.792;2023-08-20T11:33:45;31.00;99.90
2657;DHT22;1338;48.176;11.792;2023-08-20T11:36:16;31.10;99.90
2657;DHT22;1338;48.176;11.792;2023-08-20T11:38:50;32.30;99.90
2657;DHT22;1338;48.176;11.792;2023-08-20T11:41:20;32.20;99.90
2657;DHT22;1338;48.176;11.792;2023-08-20T11:43:49;32.20;99.90
2657;DHT22;1338;48.176;11.792;2023-08-20T11:46:19;33.10;99.90
2657;DHT22;1338;48.176;11.792;2023-08-20T11:49:03;32.40;99.90
2657;DHT22;1338;48.176;11.792;2023-08-20T11:51:38;33.00;99.90
2657;DHT22;1338;48.176;11.792;2023-08-20T11:54:09;33.20;99.90
2657;DHT22;1338;48.176;11.792;2023-08-20T11:56:44;32.70;99.90
2657;DHT22;1338;48.176;11.792;2023-08-20T11:59:14;33.20;99.90
2657;DHT22;1338;48.176;11.792;2023-08-20T12:01:50;33.00;99.90
2657;DHT22;1338;48.176;11.792;2023-08-20T12:04:23;32.80;99.90
2657;DHT22;1338;48.176;11.792;2023-08-20T12:07:04;33.30;99.90
2657;DHT22;1338;48.176;11.792;2023-08-20T12:09:33;33.40;99.90
2657;DHT22;1338;48.176;11.792;2023-08-20T12:12:05;33.20;99.90
2657;DHT22;1338;48.176;11.792;2023-08-20T12:14:34;33.50;99.90
2657;DHT22;1338;48.176;11.792;2023-08-20T12:17:02;34.10;99.90
2657;DHT22;1338;48.176;11.792;2023-08-20T12:19:34;33.60;99.90
2657;DHT22;1338;48.176;11.792;2023-08-20T12:22:04;34.90;99.90
2657;DHT22;1338;48.176;11.792;2023-08-20T12:24:32;35.20;99.90
2657;DHT22;1338;48.176;11.792;2023-08-20T12:27:01;35.10;99.90
2657;DHT22;1338;48.176;11.792;2023-08-20T12:29:31;35.30;99.90
2657;DHT22;1338;48.176;11.792;2023-08-20T12:31:59;35.40;99.90
2657;DHT22;1338;48.176;11.792;2023-08-20T12:34:31;35.20;99.90
2657;DHT22;1338;48.176;11.792;2023-08-20T12:36:59;36.40;99.90
2657;DHT22;1338;48.176;11.792;2023-08-20T12:39:29;36.00;99.90
2657;DHT22;1338;48.176;11.792;2023-08-20T12:41:58;35.30;99.90
2657;DHT22;1338;48.176;11.792;2023-08-20T12:44:26;34.90;99.90
2657;DHT22;1338;48.176;11.792;2023-08-20T12:46:55;34.50;99.90
2657;DHT22;1338;48.176;11.792;2023-08-20T12:49:23;34.50;99.90
2657;DHT22;1338;48.176;11.792;2023-08-20T12:51:52;36.10;99.90
2657;DHT22;1338;48.176;11.792;2023-08-20T12:54:20;33.70;99.90
2657;DHT22;1338;48.176;11.792;2023-08-20T12:56:50;34.50;99.90
2657;DHT22;1338;48.176;11.792;2023-08-20T12:59:19;35.00;99.90
2657;DHT22;1338;48.176;11.792;2023-08-20T13:01:47;35.60;99.90
2657;DHT22;1338;48.176;11.792;2023-08-20T13:04:16;35.10;99.90
2657;DHT22;1338;48.176;11.792;2023-08-20T13:06:46;35.40;99.90
2657;DHT22;1338;48.176;11.792;2023-08-20T13:09:15;36.60;99.90
2657;DHT22;1338;48.176;11.792;2023-08-20T13:11:44;38.00;99.90
2657;DHT22;1338;48.176;11.792;2023-08-20T13:14:18;38.60;99.90
2657;DHT22;1338;48.176;11.792;2023-08-20T13:16:47;36.30;99.90
2657;DHT22;1338;48.176;11.792;2023-08-20T13:19:16;36.80;99.90
2657;DHT22;1338;48.176;11.792;2023-08-20T13:21:44;35.90;99.90
2657;DHT22;1338;48.176;11.792;2023-08-20T13:24:13;35.40;99.90
2657;DHT22;1338;48.176;11.792;2023-08-20T13:26:42;36.10;99.90
2657;DHT22;1338;48.176;11.792;2023-08-20T13:29:11;35.90;99.90
2657;DHT22;1338;48.176;11.792;2023-08-20T13:31:41;35.80;99.90
2657;DHT22;1338;48.176;11.792;2023-08-20T13:34:11;35.90;99.90
2657;DHT22;1338;48.176;11.792;2023-08-20T13:36:39;36.90;99.90
2657;DHT22;1338;48.176;11.792;2023-08-20T13:39:08;36.70;99.90
2657;DHT22;1338;48.176;11.792;2023-08-20T13:41:39;37.30;99.90
2657;DHT22;1338;48.176;11.792;2023-08-20T13:44:08;37.10;99.90
2657;DHT22;1338;48.176;11.792;2023-08-20T13:46:37;37.00;99.90
2657;DHT22;1338;48.176;11.792;2023-08-20T13:49:07;36.70;99.90
2657;DHT22;1338;48.176;11.792;2023-08-20T13:51:36;38.20;99.90
2657;DHT22;1338;48.176;11.792;2023-08-20T13:54:04;37.20;99.90
2657;DHT22;1338;48.176;11.792;2023-08-20T13:56:36;37.50;99.90
2657;DHT22;1338;48.176;11.792;2023-08-20T13:59:05;36.40;99.90
2657;DHT22;1338;48.176;11.792;2023-08-20T14:01:35;35.90;99.90
2657;DHT22;1338;48.176;11.792;2023-08-20T14:04:05;35.10;99.90
2657;DHT22;1338;48.176;11.792;2023-08-20T14:06:35;36.90;99.90
2657;DHT22;1338;48.176;11.792;2023-08-20T14:09:04;38.70;99.90
2657;DHT22;1338;48.176;11.792;2023-08-20T14:11:33;36.80;99.90
2657;DHT22;1338;48.176;11.792;2023-08-20T14:14:02;38.40;99.90
2657;DHT22;1338;48.176;11.792;2023-08-20T14:16:31;38.30;99.90
2657;DHT22;1338;48.176;11.792;2023-08-20T14:18:59;38.00;99.90
2657;DHT22;1338;48.176;11.792;2023-08-20T14:21:28;37.70;99.90
2657;DHT22;1338;48.176;11.792;2023-08-20T14:23:58;36.80;99.90
2657;DHT22;1338;48.176;11.792;2023-08-20T14:26:27;37.80;99.90
2657;DHT22;1338;48.176;11.792;2023-08-20T14:28:56;38.30;99.90
2657;DHT22;1338;48.176;11.792;2023-08-20T14:31:26;40.10;99.90
2657;DHT22;1338;48.176;11.792;2023-08-20T14:33:55;37.60;99.90
2657;DHT22;1338;48.176;11.792;2023-08-20T14:36:23;37.00;99.90
2657;DHT22;1338;48.176;11.792;2023-08-20T14:38:51;37.90;99.90
2657;DHT22;1338;48.176;11.792;2023-08-20T14:41:22;38.40;99.90
2657;DHT22;1338;48.176;11.792;2023-08-20T14:43:50;39.10;99.90
2657;DHT22;1338;48.176;11.792;2023-08-20T14:46:19;39.20;99.90
2657;DHT22;1338;48.176;11.792;2023-08-20T14:48:48;38.70;99.90
2657;DHT22;1338;48.176;11.792;2023-08-20T14:51:17;38.80;99.90
2657;DHT22;1338;48.176;11.792;2023-08-20T14:53:45;39.10;99.90
2657;DHT22;1338;48.176;11.792;2023-08-20T14:56:14;40.60;99.90
2657;DHT22;1338;48.176;11.792;2023-08-20T14:58:44;39.80;99.90
2657;DHT22;1338;48.176;11.792;2023-08-20T15:01:13;40.80;99.90
2657;DHT22;1338;48.176;11.792;2023-08-20T15:03:42;41.30;99.90
2657;DHT22;1338;48.176;11.792;2023-08-20T15:06:10;40.50;99.90
2657;DHT22;1338;48.176;11.792;2023-08-20T15:08:39;39.90;99.90
2657;DHT22;1338;48.176;11.792;2023-08-20T15:11:08;38.80;99.90
2657;DHT22;1338;48.176;11.792;2023-08-20T15:13:37;38.90;99.90
2657;DHT22;1338;48.176;11.792;2023-08-20T15:16:07;40.30;99.90
2657;DHT22;1338;48.176;11.792;2023-08-20T15:18:36;41.10;99.90
2657;DHT22;1338;48.176;11.792;2023-08-20T15:21:04;40.40;99.90
2657;DHT22;1338;48.176;11.792;2023-08-20T15:23:33;40.80;99.90
2657;DHT22;1338;48.176;11.792;2023-08-20T15:26:01;41.70;99.90
2657;DHT22;1338;48.176;11.792;2023-08-20T15:28:29;41.50;99.90
2657;DHT22;1338;48.176;11.792;2023-08-20T15:30:58;42.30;99.90
2657;DHT22;1338;48.176;11.792;2023-08-20T15:33:28;40.80;99.90
2657;DHT22;1338;48.176;11.792;2023-08-20T15:35:57;41.70;99.90
2657;DHT22;1338;48.176;11.792;2023-08-20T15:38:27;40.40;99.90
2657;DHT22;1338;48.176;11.792;2023-08-20T15:40:56;40.30;99.90
2657;DHT22;1338;48.176;11.792;2023-08-20T15:43:25;39.30;99.90
2657;DHT22;1338;48.176;11.792;2023-08-20T15:45:53;39.70;99.90
2657;DHT22;1338;48.176;11.792;2023-08-20T15:48:22;40.30;99.90
2657;DHT22;1338;48.176;11.792;2023-08-20T15:50:52;39.20;99.90
2657;DHT22;1338;48.176;11.792;2023-08-20T15:53:21;38.20;99.90
2657;DHT22;1338;48.176;11.792;2023-08-20T15:55:50;39.70;99.90
2657;DHT22;1338;48.176;11.792;2023-08-20T15:58:19;40.30;99.90
2657;DHT22;1338;48.176;11.792;2023-08-20T16:00:48;40.40;99.90
2657;DHT22;1338;48.176;11.792;2023-08-20T16:03:17;41.10;99.90
2657;DHT22;1338;48.176;11.792;2023-08-20T16:05:46;41.20;99.90
2657;DHT22;1338;48.176;11.792;2023-08-20T16:08:16;40.40;99.90
2657;DHT22;1338;48.176;11.792;2023-08-20T16:10:45;39.40;99.90
2657;DHT22;1338;48.176;11.792;2023-08-20T16:13:14;39.50;99.90